Time;durP1;ratioP1;P1;durP2;ratioP2;P2;SDS_P1;SDS_P2;PMS_P1;PMS_P2;Temp;Humidity;BMP_temperature;BMP_pressure;BME280_temperature;BME280_humidity;BME280_pressure;Samples;Min_cycle;Max_cycle;Signal;HPM_P1;HPM_P2
2023/01/25 00:02:21;;;;;;;20.93;16.27;;;2.20;99.90;1.90;102610.00;;;;4779123;29;101987;-70
2023/01/25 00:04:46;;;;;;;25.33;14.93;;;2.20;99.90;1.80;102613.00;;;;4779553;29;109042;-71
2023/01/25 00:07:12;;;;;;;27.40;15.47;;;2.10;99.90;1.80;102608.00;;;;4780713;29;117559;-71
2023/01/25 00:09:38;;;;;;;28.33;15.43;;;2.10;99.90;1.80;102611.00;;;;4781554;29;116895;-71
2023/01/25 00:12:04;;;;;;;22.10;16.63;;;2.20;99.90;1.80;102604.00;;;;4782110;29;112787;-73
2023/01/25 00:14:29;;;;;;;31.37;17.07;;;2.10;99.90;1.80;102603.00;;;;4778204;29;92003;-70
2023/01/25 00:16:55;;;;;;;25.63;14.10;;;2.10;99.90;1.80;102619.00;;;;4780182;29;112583;-70
2023/01/25 00:19:22;;;;;;;28.23;14.57;;;2.20;99.90;1.80;102598.00;;;;4779186;29;88041;-72
2023/01/25 00:21:48;;;;;;;26.17;15.63;;;2.20;99.90;1.80;102603.00;;;;4780293;29;88797;-72
2023/01/25 00:24:14;;;;;;;20.73;14.00;;;2.20;99.90;1.80;102602.00;;;;4781542;29;87959;-71
2023/01/25 00:26:42;;;;;;;17.17;13.23;;;2.00;99.90;1.80;102605.00;;;;4779115;29;94051;-72
2023/01/25 00:29:11;;;;;;;26.67;15.27;;;2.10;99.90;1.80;102607.00;;;;4778899;29;89883;-72
2023/01/25 00:32:00;;;;;;;24.40;16.00;;;2.10;99.90;1.80;102601.00;;;;4781772;29;88085;-72
2023/01/25 00:34:47;;;;;;;24.17;16.40;;;2.20;99.90;1.80;102588.00;;;;4782772;29;88101;-71
2023/01/25 00:37:24;;;;;;;22.37;14.63;;;2.10;99.90;1.80;102594.00;;;;4781019;29;87890;-71
2023/01/25 00:39:50;;;;;;;20.00;14.37;;;2.10;99.90;1.80;102591.00;;;;4779518;29;87362;-71
2023/01/25 00:42:18;;;;;;;19.00;13.87;;;2.10;99.90;1.80;102596.00;;;;4782062;29;89227;-72
2023/01/25 00:44:44;;;;;;;27.50;13.60;;;2.10;99.90;1.80;102581.00;;;;4783635;29;87862;-70
2023/01/25 00:47:11;;;;;;;25.90;14.63;;;2.00;99.90;1.80;102591.00;;;;4782217;29;89797;-71
2023/01/25 00:49:39;;;;;;;24.63;15.60;;;2.20;99.90;1.80;102579.00;;;;4778849;29;94172;-70
2023/01/25 00:52:06;;;;;;;33.13;17.70;;;2.10;99.90;1.80;102578.00;;;;4781279;29;87819;-70
2023/01/25 00:54:31;;;;;;;27.90;17.70;;;3.20;99.90;1.80;102578.00;;;;4778534;29;89686;-71
2023/01/25 00:56:57;;;;;;;24.87;13.67;;;3.10;99.90;1.80;102578.00;;;;4781466;29;117828;-70
2023/01/25 00:59:23;;;;;;;24.17;15.50;;;2.10;99.90;1.80;102574.00;;;;4779030;29;88474;-71
2023/01/25 01:01:50;;;;;;;29.77;15.20;;;2.10;99.90;1.80;102570.00;;;;4783234;29;87909;-71
2023/01/25 01:04:16;;;;;;;22.23;14.10;;;2.20;99.90;1.80;102571.00;;;;4780702;29;88145;-72
2023/01/25 01:06:41;;;;;;;21.27;13.50;;;2.10;99.90;1.80;102563.00;;;;4779022;29;116307;-71
2023/01/25 01:09:13;;;;;;;26.03;15.57;;;2.20;99.90;1.90;102557.00;;;;4781085;29;104900;-70
2023/01/25 01:11:39;;;;;;;24.90;16.50;;;2.10;99.90;1.90;102554.00;;;;4779250;29;88627;-70
2023/01/25 01:14:04;;;;;;;26.00;17.23;;;2.10;99.90;1.90;102541.00;;;;4781237;29;92919;-70
2023/01/25 01:16:30;;;;;;;29.20;15.73;;;2.10;99.90;1.90;102535.00;;;;4782436;29;88044;-70
2023/01/25 01:18:56;;;;;;;31.13;15.53;;;2.10;99.90;1.90;102540.00;;;;4783005;29;87768;-70
2023/01/25 01:21:21;;;;;;;25.80;16.70;;;2.20;99.90;1.90;102535.00;;;;4783278;29;100924;-70
2023/01/25 01:23:47;;;;;;;24.57;15.50;;;2.20;99.90;1.90;102541.00;;;;4780703;29;107794;-70
2023/01/25 01:26:18;;;;;;;24.20;13.73;;;2.20;99.90;1.90;102528.00;;;;4778493;29;117200;-70
2023/01/25 01:28:44;;;;;;;23.63;14.67;;;2.20;99.90;1.90;102528.00;;;;4780425;29;88613;-70
2023/01/25 01:31:14;;;;;;;23.33;14.83;;;2.30;99.90;1.90;102517.00;;;;4779135;29;100252;-70
2023/01/25 01:33:40;;;;;;;19.00;13.87;;;2.30;99.90;1.90;102521.00;;;;4776871;29;88406;-70
2023/01/25 01:36:12;;;;;;;26.33;14.90;;;2.20;99.90;1.90;102518.00;;;;4776878;29;117078;-70
2023/01/25 01:38:37;;;;;;;27.60;15.67;;;2.20;99.90;2.00;102519.00;;;;4794626;29;90655;-71
2023/01/25 01:41:03;;;;;;;23.90;15.43;;;2.20;99.90;2.00;102519.00;;;;4765370;29;97856;-71
2023/01/25 01:43:32;;;;;;;33.63;15.97;;;2.20;99.90;2.00;102519.00;;;;4779095;29;87714;-70
2023/01/25 01:46:04;;;;;;;23.00;15.00;;;2.30;99.90;2.00;102519.00;;;;4775795;29;88725;-70
2023/01/25 01:48:49;;;;;;;22.80;14.73;;;2.40;99.90;2.00;102511.00;;;;4791554;29;87923;-70
2023/01/25 01:51:49;;;;;;;30.93;15.80;;;2.30;99.90;2.00;102519.00;;;;4780879;29;87748;-71
2023/01/25 01:54:22;;;;;;;22.83;14.70;;;2.30;99.90;2.00;102506.00;;;;4782157;29;87113;-71
2023/01/25 01:56:54;;;;;;;23.47;14.37;;;2.30;99.90;2.00;102494.00;;;;4782528;29;89111;-71
2023/01/25 01:59:23;;;;;;;31.50;16.90;;;2.20;99.90;2.00;102494.00;;;;4783998;29;109251;-71
2023/01/25 02:01:48;;;;;;;22.53;16.10;;;2.20;99.90;2.00;102493.00;;;;4785245;29;103192;-71
2023/01/25 02:04:17;;;;;;;25.70;14.83;;;2.30;99.90;2.00;102486.00;;;;4785439;29;108411;-70
2023/01/25 02:06:50;;;;;;;25.20;15.13;;;2.30;99.90;2.00;102480.00;;;;4797172;29;108659;-70
2023/01/25 02:09:21;;;;;;;19.13;13.80;;;2.40;99.90;2.00;102481.00;;;;4781612;29;108922;-70
2023/01/25 02:11:47;;;;;;;27.63;17.23;;;2.90;99.90;2.00;102476.00;;;;4784614;29;87928;-70
2023/01/25 02:14:15;;;;;;;25.77;14.03;;;2.30;99.90;2.00;102482.00;;;;4781204;29;107963;-70
2023/01/25 02:16:42;;;;;;;19.97;13.77;;;2.30;99.90;2.00;102469.00;;;;4780313;29;110241;-70
2023/01/25 02:19:13;;;;;;;23.13;15.17;;;2.30;99.90;1.90;102476.00;;;;4795313;29;118155;-70
2023/01/25 02:21:44;;;;;;;21.90;14.37;;;2.20;99.90;1.90;102471.00;;;;4784119;29;87843;-70
2023/01/25 02:24:20;;;;;;;26.37;16.47;;;2.20;99.90;1.90;102457.00;;;;4762509;29;109654;-70
2023/01/25 02:26:46;;;;;;;29.10;15.57;;;2.20;99.90;2.00;102468.00;;;;4783635;29;89160;-70
2023/01/25 02:29:12;;;;;;;26.00;14.20;;;2.40;99.90;2.00;102460.00;;;;4783552;29;113509;-70
2023/01/25 02:31:38;;;;;;;26.77;16.70;;;2.20;99.90;2.00;102464.00;;;;4783406;29;111310;-70
2023/01/25 02:34:03;;;;;;;32.13;16.87;;;2.20;99.90;2.00;102471.00;;;;4782973;29;108422;-69
2023/01/25 02:36:33;;;;;;;23.57;16.00;;;2.20;99.90;2.00;102468.00;;;;4783630;29;116847;-70
2023/01/25 02:39:01;;;;;;;23.43;14.73;;;2.10;99.90;2.00;102460.00;;;;4781538;29;106850;-70
2023/01/25 02:41:37;;;;;;;26.10;17.43;;;2.30;99.90;2.10;102460.00;;;;4794434;29;103683;-70
2023/01/25 02:44:11;;;;;;;29.33;17.37;;;2.30;99.90;2.10;102470.00;;;;4782456;29;87006;-70
2023/01/25 02:46:39;;;;;;;27.70;18.50;;;2.30;99.90;2.10;102463.00;;;;4796559;29;98007;-70
2023/01/25 02:49:07;;;;;;;31.30;17.00;;;2.40;99.90;2.10;102464.00;;;;4784597;29;109930;-71
2023/01/25 02:51:40;;;;;;;27.90;17.40;;;2.40;99.90;2.10;102454.00;;;;4763839;29;88985;-70
2023/01/25 02:54:08;;;;;;;24.53;15.70;;;2.40;99.90;2.10;102457.00;;;;4778819;29;88041;-70
2023/01/25 02:56:34;;;;;;;30.80;14.53;;;2.40;99.90;2.10;102453.00;;;;4783483;29;87937;-70
2023/01/25 02:59:04;;;;;;;28.23;16.27;;;2.40;99.90;2.10;102455.00;;;;4780320;29;117831;-70
2023/01/25 03:01:38;;;;;;;28.27;17.13;;;2.40;99.90;2.10;102456.00;;;;4781508;29;88408;-70
2023/01/25 03:04:05;;;;;;;24.07;15.03;;;2.40;99.90;2.10;102451.00;;;;4782205;29;87952;-70
2023/01/25 03:06:32;;;;;;;32.83;17.20;;;2.10;99.90;2.10;102467.00;;;;4795732;29;88032;-70
2023/01/25 03:08:57;;;;;;;25.43;16.40;;;2.30;99.90;2.10;102454.00;;;;4784487;29;87137;-70
2023/01/25 03:11:23;;;;;;;19.70;14.00;;;2.30;99.90;2.10;102452.00;;;;4782421;29;113065;-70
2023/01/25 03:13:50;;;;;;;26.27;15.67;;;2.40;99.90;2.10;102456.00;;;;4782667;29;108651;-70
2023/01/25 03:16:15;;;;;;;20.00;13.50;;;2.30;99.90;2.10;102454.00;;;;4781220;29;118913;-70
2023/01/25 03:18:42;;;;;;;26.53;17.17;;;2.40;99.90;2.10;102445.00;;;;4781321;29;109567;-70
2023/01/25 03:21:11;;;;;;;26.40;15.43;;;2.50;99.90;2.10;102445.00;;;;4781315;29;114160;-70
2023/01/25 03:23:37;;;;;;;19.43;14.40;;;2.40;99.90;2.20;102449.00;;;;4783000;29;87810;-70
2023/01/25 03:26:18;;;;;;;23.50;14.97;;;2.60;99.90;2.10;102435.00;;;;4783461;29;106397;-70
2023/01/25 03:28:44;;;;;;;24.23;14.60;;;2.40;99.90;2.10;102438.00;;;;4780604;29;88466;-69
2023/01/25 03:31:12;;;;;;;22.53;16.10;;;2.40;99.90;2.20;102450.00;;;;4781042;29;113486;-69
2023/01/25 03:33:38;;;;;;;24.33;13.63;;;1.90;99.90;2.10;102448.00;;;;4781189;29;87125;-69
2023/01/25 03:36:06;;;;;;;29.33;14.73;;;2.50;99.90;2.10;102447.00;;;;4779215;29;116522;-70
2023/01/25 03:38:32;;;;;;;21.47;15.10;;;2.30;99.90;2.10;102444.00;;;;4782059;29;109132;-71
2023/01/25 03:40:58;;;;;;;20.37;15.30;;;2.50;99.90;2.10;102442.00;;;;4783767;29;88782;-70
2023/01/25 03:43:24;;;;;;;26.20;15.43;;;2.40;99.90;2.10;102452.00;;;;4776266;29;87986;-70
2023/01/25 03:45:56;;;;;;;26.37;14.53;;;3.30;99.90;2.10;102450.00;;;;4782126;29;116353;-70
2023/01/25 03:48:23;;;;;;;23.20;15.47;;;2.40;99.90;2.10;102442.00;;;;4780669;29;112557;-70
2023/01/25 03:50:56;;;;;;;24.00;17.40;;;2.30;99.90;2.00;102438.00;;;;4782045;29;104464;-70
2023/01/25 03:53:29;;;;;;;23.10;12.90;;;2.40;99.90;2.00;102434.00;;;;4776374;29;89377;-70
2023/01/25 03:56:01;;;;;;;21.40;14.23;;;2.30;99.90;2.00;102439.00;;;;4780755;29;90437;-70
2023/01/25 03:58:28;;;;;;;23.23;15.27;;;2.40;99.90;2.00;102442.00;;;;4782659;29;88097;-70
2023/01/25 04:00:58;;;;;;;21.53;12.93;;;2.30;99.90;2.00;102440.00;;;;4785224;29;87913;-70
2023/01/25 04:03:24;;;;;;;15.13;11.37;;;3.20;99.90;2.00;102431.00;;;;4783092;29;88077;-70
2023/01/25 04:05:52;;;;;;;18.43;13.80;;;2.30;99.90;2.00;102428.00;;;;4783921;29;89638;-69
2023/01/25 04:08:18;;;;;;;18.97;13.63;;;2.30;99.90;2.00;102433.00;;;;4777553;29;87970;-69
2023/01/25 04:10:44;;;;;;;24.60;15.47;;;2.40;99.90;2.00;102435.00;;;;4782834;29;87947;-69
2023/01/25 04:13:10;;;;;;;19.87;14.80;;;2.30;99.90;2.00;102428.00;;;;4782896;29;87835;-69
2023/01/25 04:15:36;;;;;;;17.43;12.80;;;2.30;99.90;2.00;102408.00;;;;4776574;29;101951;-69
2023/01/25 04:18:02;;;;;;;22.37;13.33;;;2.20;99.90;2.00;102418.00;;;;4779478;29;100917;-69
2023/01/25 04:20:27;;;;;;;19.67;13.90;;;2.60;99.90;2.00;102415.00;;;;4780967;29;113983;-69
2023/01/25 04:22:53;;;;;;;17.70;12.27;;;2.30;99.90;2.00;102418.00;;;;4780524;29;87111;-70
2023/01/25 04:25:19;;;;;;;22.13;14.37;;;2.30;99.90;2.00;102418.00;;;;4779710;29;111523;-70
2023/01/25 04:27:44;;;;;;;20.83;14.23;;;2.30;99.90;2.00;102415.00;;;;4779324;29;117359;-69
2023/01/25 04:30:10;;;;;;;21.80;13.90;;;2.30;99.90;2.00;102415.00;;;;4779020;29;104340;-70
2023/01/25 04:32:36;;;;;;;21.50;12.30;;;2.30;99.90;2.00;102426.00;;;;4783850;29;100035;-70
2023/01/25 04:35:02;;;;;;;24.50;13.93;;;2.30;99.90;2.00;102412.00;;;;4779865;29;108563;-70
2023/01/25 04:37:28;;;;;;;21.53;13.77;;;2.40;99.90;2.00;102408.00;;;;4782567;29;107756;-69
2023/01/25 04:39:54;;;;;;;20.33;13.00;;;2.20;99.90;2.00;102413.00;;;;4794842;29;113189;-69
2023/01/25 04:42:19;;;;;;;27.10;15.73;;;2.30;99.90;2.00;102401.00;;;;4781982;29;108528;-70
2023/01/25 04:44:45;;;;;;;22.00;14.17;;;2.30;99.90;2.00;102405.00;;;;4782439;29;117442;-70
2023/01/25 04:47:11;;;;;;;26.00;15.37;;;2.40;99.90;2.00;102404.00;;;;4781572;29;116408;-69
2023/01/25 04:49:36;;;;;;;22.17;15.07;;;2.40;99.90;2.00;102399.00;;;;4777154;29;113332;-70
2023/01/25 04:52:02;;;;;;;25.23;15.70;;;2.30;99.90;2.00;102394.00;;;;4781657;29;107824;-69
2023/01/25 04:54:28;;;;;;;23.90;13.07;;;2.40;99.90;2.00;102398.00;;;;4783921;29;109300;-70
2023/01/25 04:56:53;;;;;;;24.90;13.53;;;2.30;99.90;2.00;102403.00;;;;4781886;29;118597;-70
2023/01/25 04:59:19;;;;;;;18.43;13.57;;;2.30;99.90;2.00;102399.00;;;;4780712;29;111837;-71
2023/01/25 05:01:45;;;;;;;23.20;14.50;;;2.30;99.90;2.00;102394.00;;;;4792554;29;106849;-70
2023/01/25 05:04:10;;;;;;;16.73;12.50;;;2.40;99.90;2.00;102389.00;;;;4780289;29;112391;-70
2023/01/25 05:06:36;;;;;;;19.97;12.83;;;2.30;99.90;2.00;102387.00;;;;4779846;29;103874;-70
2023/01/25 05:09:02;;;;;;;16.23;9.10;;;2.20;99.90;1.90;102389.00;;;;4779415;29;114228;-70
2023/01/25 05:11:27;;;;;;;16.00;9.80;;;2.30;99.90;1.90;102371.00;;;;4781066;29;108978;-70
2023/01/25 05:13:53;;;;;;;16.20;10.23;;;2.20;99.90;1.90;102377.00;;;;4781790;29;89262;-70
2023/01/25 05:16:19;;;;;;;15.13;9.57;;;2.20;99.90;1.90;102363.00;;;;4777681;29;118875;-71
2023/01/25 05:18:45;;;;;;;16.77;9.13;;;2.20;99.90;1.90;102369.00;;;;4780162;29;112271;-70
2023/01/25 05:21:56;;;;;;;19.97;9.60;;;2.10;99.90;1.90;102367.00;;;;4781436;29;108692;-70
2023/01/25 05:23:56;;;;;;;22.93;10.00;;;2.20;99.90;1.90;102357.00;;;;4781260;29;88012;-70
2023/01/25 05:29:09;;;;;;;19.57;10.53;;;2.30;99.90;1.90;102362.00;;;;4781008;29;87724;-70
2023/01/25 05:31:34;;;;;;;13.90;10.23;;;2.20;99.90;1.90;102357.00;;;;4779100;29;87753;-70
2023/01/25 05:34:00;;;;;;;14.30;10.03;;;2.20;99.90;1.90;102354.00;;;;4782449;29;119086;-70
2023/01/25 05:36:25;;;;;;;16.73;10.60;;;2.20;99.90;1.90;102361.00;;;;4780691;29;116150;-70
2023/01/25 05:38:51;;;;;;;16.63;11.57;;;2.20;99.90;2.00;102361.00;;;;4781351;29;112366;-70
2023/01/25 05:41:17;;;;;;;14.97;10.13;;;2.30;99.90;1.90;102361.00;;;;4779327;29;87773;-70
2023/01/25 05:43:43;;;;;;;15.07;9.87;;;2.20;99.90;1.90;102369.00;;;;4775727;29;110597;-70
2023/01/25 05:46:09;;;;;;;16.43;10.40;;;2.30;99.90;1.90;102356.00;;;;4791617;29;116279;-69
2023/01/25 05:48:34;;;;;;;15.87;9.73;;;2.30;99.90;1.90;102361.00;;;;4776997;29;108806;-70
2023/01/25 05:51:00;;;;;;;18.77;9.63;;;2.20;99.90;2.00;102366.00;;;;4776996;29;109162;-69
2023/01/25 05:53:27;;;;;;;15.20;9.73;;;2.30;99.90;1.90;102363.00;;;;4775161;29;118672;-69
2023/01/25 05:55:53;;;;;;;22.40;11.10;;;2.20;99.90;2.00;102358.00;;;;4776114;29;95515;-69
2023/01/25 05:58:18;;;;;;;12.83;7.70;;;2.80;99.90;1.90;102348.00;;;;4775996;29;99555;-70
2023/01/25 06:00:44;;;;;;;17.23;8.37;;;2.20;99.90;1.90;102357.00;;;;4779440;29;87814;-70
2023/01/25 06:03:10;;;;;;;13.23;7.70;;;2.20;99.90;1.90;102356.00;;;;4773984;29;117361;-70
2023/01/25 06:05:35;;;;;;;11.67;9.17;;;2.20;99.90;1.90;102359.00;;;;4777102;29;118604;-70
2023/01/25 06:08:01;;;;;;;13.77;7.43;;;2.90;99.90;1.90;102355.00;;;;4776932;29;111725;-70
2023/01/25 06:10:27;;;;;;;14.27;7.87;;;2.10;99.90;1.90;102353.00;;;;4778806;29;88051;-70
2023/01/25 06:12:59;;;;;;;9.27;7.37;;;2.30;99.90;1.90;102352.00;;;;4781514;29;116554;-70
2023/01/25 06:15:25;;;;;;;12.23;7.67;;;2.20;99.90;1.90;102343.00;;;;4781616;29;95532;-69
2023/01/25 06:17:55;;;;;;;11.80;7.70;;;2.10;99.90;1.90;102337.00;;;;4780030;29;111150;-69
2023/01/25 06:20:21;;;;;;;14.17;7.73;;;2.20;99.90;1.90;102342.00;;;;4780812;29;88032;-70
2023/01/25 06:22:50;;;;;;;12.20;7.53;;;2.20;99.90;1.90;102347.00;;;;4782000;29;88400;-70
2023/01/25 06:25:16;;;;;;;9.20;6.93;;;2.00;99.90;1.90;102344.00;;;;4778894;29;89437;-69
2023/01/25 06:27:42;;;;;;;8.87;6.43;;;2.30;99.90;1.90;102348.00;;;;4780970;29;103181;-69
2023/01/25 06:30:09;;;;;;;14.90;8.37;;;2.20;99.90;1.90;102345.00;;;;4781765;29;107032;-69
2023/01/25 06:32:34;;;;;;;11.63;7.07;;;2.20;99.90;1.90;102344.00;;;;4779211;29;90339;-70
2023/01/25 06:35:00;;;;;;;19.70;8.23;;;2.20;99.90;1.90;102341.00;;;;4778866;29;117406;-69
2023/01/25 06:37:26;;;;;;;12.60;6.77;;;2.20;99.90;1.90;102356.00;;;;4782999;29;110414;-69
2023/01/25 06:39:52;;;;;;;12.27;7.53;;;2.20;99.90;1.90;102352.00;;;;4782409;29;108278;-69
2023/01/25 06:42:18;;;;;;;16.73;8.97;;;2.30;99.90;1.90;102346.00;;;;4783836;29;88023;-69
2023/01/25 06:44:44;;;;;;;12.57;7.37;;;2.30;99.90;1.90;102357.00;;;;4784980;29;100057;-69
2023/01/25 06:47:11;;;;;;;7.43;5.63;;;2.10;99.90;1.90;102351.00;;;;4786283;29;109335;-69
2023/01/25 06:49:37;;;;;;;9.67;6.37;;;2.20;99.90;1.80;102345.00;;;;4784169;29;87836;-69
2023/01/25 06:52:03;;;;;;;12.73;7.07;;;2.20;99.90;1.80;102337.00;;;;4783040;29;87794;-69
2023/01/25 06:54:29;;;;;;;15.80;8.73;;;3.10;99.90;1.80;102344.00;;;;4785630;29;117130;-69
2023/01/25 06:56:54;;;;;;;16.17;8.80;;;2.00;99.90;1.80;102332.00;;;;4783991;29;110038;-69
2023/01/25 06:59:20;;;;;;;8.20;6.33;;;2.10;99.90;1.80;102335.00;;;;4782087;29;108672;-68
2023/01/25 07:01:46;;;;;;;10.70;7.37;;;2.20;99.90;1.80;102332.00;;;;4783880;29;89246;-69
2023/01/25 07:04:11;;;;;;;13.63;7.33;;;1.90;99.90;1.80;102332.00;;;;4780449;29;116660;-69
2023/01/25 07:06:38;;;;;;;13.47;7.30;;;2.00;99.90;1.70;102317.00;;;;4784015;29;88840;-69
2023/01/25 07:09:10;;;;;;;6.43;5.43;;;2.00;99.90;1.70;102317.00;;;;4783559;29;100239;-69
2023/01/25 07:11:36;;;;;;;10.43;6.40;;;3.00;99.90;1.70;102315.00;;;;4780044;29;90650;-69
2023/01/25 07:14:02;;;;;;;8.07;6.63;;;2.70;99.90;1.70;102301.00;;;;4779715;29;115431;-69
2023/01/25 07:16:35;;;;;;;17.33;8.83;;;2.00;99.90;1.70;102296.00;;;;4783281;29;104257;-69
2023/01/25 07:19:04;;;;;;;8.67;7.57;;;2.00;99.90;1.70;102293.00;;;;4782868;29;89529;-70
2023/01/25 07:21:30;;;;;;;13.00;7.97;;;2.00;99.90;1.70;102291.00;;;;4782359;29;90985;-69
2023/01/25 07:24:01;;;;;;;12.43;6.77;;;2.00;99.90;1.70;102300.00;;;;4777653;29;106469;-70
2023/01/25 07:26:27;;;;;;;11.03;7.90;;;2.00;99.90;1.70;102289.00;;;;4784939;29;88227;-70
2023/01/25 07:28:55;;;;;;;14.87;7.13;;;2.00;99.90;1.70;102302.00;;;;4781768;29;99711;-70
2023/01/25 07:31:20;;;;;;;17.83;7.57;;;2.00;99.90;1.70;102294.00;;;;4782983;29;93430;-70
2023/01/25 07:34:04;;;;;;;12.20;8.13;;;1.90;99.90;1.70;102296.00;;;;4783264;29;118109;-70
2023/01/25 07:36:30;;;;;;;15.87;8.53;;;2.00;99.90;1.80;102294.00;;;;4782055;29;109572;-70
2023/01/25 07:38:57;;;;;;;11.90;7.87;;;2.10;99.90;1.90;102290.00;;;;4784611;29;87082;-70
2023/01/25 07:41:24;;;;;;;10.17;7.47;;;2.20;99.90;1.90;102287.00;;;;4794711;29;108281;-70
2023/01/25 07:43:51;;;;;;;22.30;8.20;;;2.20;99.90;1.90;102287.00;;;;4782566;29;102302;-70
2023/01/25 07:46:17;;;;;;;9.73;7.67;;;2.20;99.90;1.90;102286.00;;;;4793797;29;88921;-70
2023/01/25 07:48:48;;;;;;;11.30;7.47;;;2.20;99.90;2.00;102279.00;;;;4780452;29;108440;-70
2023/01/25 07:51:22;;;;;;;9.47;5.97;;;2.60;99.90;2.00;102274.00;;;;4782316;29;87988;-70
2023/01/25 07:53:55;;;;;;;11.93;6.77;;;2.20;99.90;2.00;102272.00;;;;4782085;29;88905;-70
2023/01/25 07:56:32;;;;;;;14.50;6.60;;;2.30;99.90;2.00;102269.00;;;;4783502;29;88778;-70
2023/01/25 07:59:01;;;;;;;16.80;7.17;;;2.30;99.90;2.00;102269.00;;;;4781964;29;87762;-71
2023/01/25 08:01:29;;;;;;;13.63;8.63;;;2.20;99.90;2.00;102276.00;;;;4793790;29;89336;-70
2023/01/25 08:03:55;;;;;;;10.93;7.97;;;2.30;99.90;2.00;102274.00;;;;4783715;29;88669;-70
2023/01/25 08:06:34;;;;;;;13.63;7.87;;;2.30;99.90;2.00;102280.00;;;;4781932;29;87932;-70
2023/01/25 08:09:03;;;;;;;14.70;8.87;;;2.30;99.90;2.00;102268.00;;;;4781977;29;87682;-70
2023/01/25 08:11:30;;;;;;;12.13;8.10;;;2.30;99.90;2.00;102265.00;;;;4784221;29;110886;-70
2023/01/25 08:13:56;;;;;;;16.17;7.77;;;2.20;99.90;2.00;102272.00;;;;4780169;29;89601;-70
2023/01/25 08:16:25;;;;;;;14.07;7.10;;;2.40;99.90;2.00;102273.00;;;;4783000;29;88019;-69
2023/01/25 08:18:57;;;;;;;12.37;7.67;;;2.80;99.90;2.00;102265.00;;;;4783696;29;87863;-69
2023/01/25 08:21:28;;;;;;;13.47;6.77;;;2.40;99.90;2.00;102259.00;;;;4782711;29;87971;-69
2023/01/25 08:23:56;;;;;;;13.37;7.13;;;2.40;99.90;2.00;102268.00;;;;4783265;29;89071;-69
2023/01/25 08:26:22;;;;;;;6.70;5.90;;;2.30;99.90;2.00;102269.00;;;;4783367;29;92239;-70
2023/01/25 08:28:48;;;;;;;13.30;6.83;;;2.20;99.90;2.00;102267.00;;;;4782302;29;86902;-70
2023/01/25 08:31:27;;;;;;;11.63;6.97;;;2.30;99.90;2.00;102274.00;;;;4781307;29;118435;-70
2023/01/25 08:33:53;;;;;;;9.87;7.20;;;2.30;99.90;2.00;102274.00;;;;4783280;29;88560;-70
2023/01/25 08:36:20;;;;;;;11.03;6.73;;;2.20;99.90;2.00;102269.00;;;;4779823;29;103889;-70
2023/01/25 08:38:46;;;;;;;12.33;7.17;;;2.30;99.90;2.00;102267.00;;;;4779127;29;87846;-69
2023/01/25 08:41:16;;;;;;;11.93;7.13;;;2.30;99.90;2.00;102272.00;;;;4779400;29;108190;-69
2023/01/25 08:43:43;;;;;;;12.43;6.73;;;2.20;99.90;2.10;102262.00;;;;4782409;29;89229;-70
2023/01/25 08:46:09;;;;;;;10.00;6.60;;;2.30;99.90;2.10;102261.00;;;;4783029;29;87783;-69
2023/01/25 08:48:35;;;;;;;13.23;7.43;;;2.40;99.90;2.10;102259.00;;;;4783600;29;87715;-70
2023/01/25 08:51:01;;;;;;;10.43;5.77;;;2.50;99.90;2.10;102252.00;;;;4776820;29;118319;-70
2023/01/25 08:53:29;;;;;;;9.47;7.37;;;3.00;99.90;2.10;102247.00;;;;4782491;29;88127;-70
2023/01/25 08:55:54;;;;;;;16.53;7.57;;;2.40;99.90;2.10;102258.00;;;;4779879;29;87786;-70
2023/01/25 08:58:21;;;;;;;10.17;7.83;;;2.40;99.90;2.10;102255.00;;;;4782428;29;87880;-70
2023/01/25 09:00:48;;;;;;;11.50;7.60;;;2.30;99.90;2.10;102250.00;;;;4783011;29;89298;-69
2023/01/25 09:03:14;;;;;;;13.27;6.90;;;2.40;99.90;2.10;102252.00;;;;4783303;29;89089;-69
2023/01/25 09:05:40;;;;;;;11.43;7.10;;;2.40;99.90;2.10;102230.00;;;;4783290;29;87910;-70
2023/01/25 09:08:09;;;;;;;9.83;7.70;;;2.40;99.90;2.10;102243.00;;;;4782299;29;93430;-70
2023/01/25 09:10:35;;;;;;;13.37;7.13;;;2.40;99.90;2.00;102234.00;;;;4782264;29;108272;-70
2023/01/25 09:13:00;;;;;;;12.03;7.37;;;2.30;99.90;2.00;102245.00;;;;4778444;29;87940;-70
2023/01/25 09:15:26;;;;;;;10.93;6.77;;;2.30;99.90;2.10;102238.00;;;;4792081;29;109074;-70
2023/01/25 09:17:56;;;;;;;10.77;7.40;;;2.30;99.90;2.10;102241.00;;;;4765478;29;109098;-70
2023/01/25 09:20:22;;;;;;;15.47;7.93;;;2.30;99.90;2.10;102238.00;;;;4779217;29;106570;-70
2023/01/25 09:22:48;;;;;;;10.70;6.57;;;2.40;99.90;2.10;102248.00;;;;4778105;29;104169;-70
2023/01/25 09:25:14;;;;;;;10.30;6.27;;;2.30;99.90;2.10;102244.00;;;;4783355;29;108257;-70
2023/01/25 09:27:40;;;;;;;15.70;7.93;;;2.40;99.90;2.10;102234.00;;;;4782932;29;96257;-69
2023/01/25 09:30:09;;;;;;;9.23;5.90;;;2.40;99.90;2.10;102238.00;;;;4790688;29;96495;-69
2023/01/25 09:32:35;;;;;;;11.83;6.80;;;2.40;99.90;2.20;102237.00;;;;4795370;29;90341;-69
2023/01/25 09:35:01;;;;;;;12.67;7.03;;;2.40;99.90;2.20;102217.00;;;;4783046;29;88019;-70
2023/01/25 09:37:27;;;;;;;16.43;7.20;;;2.50;99.90;2.20;102230.00;;;;4792978;29;90294;-70
2023/01/25 09:39:52;;;;;;;9.63;6.70;;;2.50;99.90;2.30;102240.00;;;;4781663;29;118617;-70
2023/01/25 09:42:47;;;;;;;11.10;7.53;;;2.50;99.90;2.30;102222.00;;;;4780374;29;114451;-70
2023/01/25 09:45:19;;;;;;;10.23;6.97;;;2.50;99.90;2.30;102222.00;;;;4782126;29;87879;-70
2023/01/25 09:48:03;;;;;;;10.20;6.17;;;2.60;99.90;2.30;102222.00;;;;4782288;29;87869;-70
2023/01/25 09:51:02;;;;;;;11.43;5.70;;;2.60;99.90;2.20;102225.00;;;;4762572;29;91190;-70
2023/01/25 09:53:37;;;;;;;12.60;5.53;;;2.50;99.90;2.30;102231.00;;;;4783417;29;88031;-70
2023/01/25 09:56:25;;;;;;;12.17;5.10;;;2.60;99.90;2.30;102218.00;;;;4790639;29;89368;-70
2023/01/25 09:58:57;;;;;;;11.10;5.73;;;2.50;99.90;2.30;102226.00;;;;4764051;29;87942;-70
2023/01/25 10:01:56;;;;;;;7.53;6.33;;;2.60;99.90;2.30;102223.00;;;;4791390;29;90248;-70
2023/01/25 10:04:27;;;;;;;11.40;7.37;;;2.60;99.90;2.30;102221.00;;;;4777220;29;109879;-70
2023/01/25 10:07:00;;;;;;;16.77;7.73;;;2.60;99.90;2.40;102213.00;;;;4795460;29;103665;-72
2023/01/25 10:09:45;;;;;;;9.30;6.30;;;2.70;99.90;2.40;102210.00;;;;4775310;29;101105;-71
2023/01/25 10:12:20;;;;;;;8.27;6.37;;;2.60;99.90;2.40;102205.00;;;;4792207;29;111454;-71
2023/01/25 10:14:47;;;;;;;8.67;6.13;;;2.70;99.90;2.40;102196.00;;;;4797991;29;88451;-71
2023/01/25 10:17:39;;;;;;;16.80;6.77;;;2.70;99.90;2.30;102196.00;;;;4784281;29;89263;-69
2023/01/25 10:20:29;;;;;;;10.70;7.67;;;2.60;99.90;2.30;102209.00;;;;4796544;29;88267;-71
2023/01/25 10:23:36;;;;;;;11.40;6.80;;;2.60;99.90;2.20;102209.00;;;;4783958;29;87880;-71
2023/01/25 10:26:24;;;;;;;10.23;8.17;;;2.50;99.90;2.20;102200.00;;;;4784356;29;87710;-71
2023/01/25 10:29:10;;;;;;;13.80;7.80;;;2.50;99.90;2.20;102195.00;;;;4780629;29;87907;-71
2023/01/25 10:31:49;;;;;;;10.37;6.53;;;2.60;99.90;2.20;102180.00;;;;4781197;29;87770;-71
2023/01/25 10:34:36;;;;;;;12.90;6.97;;;2.60;99.90;2.20;102178.00;;;;4781594;29;88176;-71
2023/01/25 10:37:11;;;;;;;9.73;6.77;;;2.50;99.90;2.20;102157.00;;;;4784327;29;108357;-71
2023/01/25 10:39:53;;;;;;;9.57;6.63;;;2.50;99.90;2.20;102160.00;;;;4782475;29;103611;-71
2023/01/25 10:42:19;;;;;;;14.23;8.07;;;2.50;99.90;2.20;102166.00;;;;4784314;29;88187;-71
2023/01/25 10:44:44;;;;;;;14.33;7.87;;;2.40;99.90;2.20;102172.00;;;;4794499;29;109593;-72
2023/01/25 10:47:22;;;;;;;15.60;6.27;;;2.60;99.90;2.20;102158.00;;;;4783011;29;118136;-71
2023/01/25 10:49:53;;;;;;;10.97;6.87;;;2.50;99.90;2.20;102145.00;;;;4794131;29;102499;-71
2023/01/25 10:52:30;;;;;;;9.50;6.20;;;2.50;99.90;2.20;102145.00;;;;4783744;29;88140;-71
2023/01/25 10:55:21;;;;;;;16.27;7.90;;;2.50;99.90;2.20;102142.00;;;;4766548;29;87984;-71
2023/01/25 10:57:50;;;;;;;10.40;7.10;;;2.50;99.90;2.30;102143.00;;;;4783671;29;88101;-71
2023/01/25 11:00:38;;;;;;;13.20;6.40;;;2.50;99.90;2.20;102136.00;;;;4783307;29;87998;-71